createdAt,value
2023-04-16T00:02:19.227Z,18.68
2023-04-16T00:04:49.462Z,18.68
2023-04-16T00:07:22.066Z,17.96
2023-04-16T00:09:52.008Z,17.92
2023-04-16T00:12:22.178Z,17.90
2023-04-16T00:14:52.268Z,17.31
2023-04-16T00:17:22.300Z,18.35
2023-04-16T00:19:52.276Z,18.52
2023-04-16T00:22:24.889Z,17.93
2023-04-16T00:24:55.003Z,18.22
2023-04-16T00:27:25.000Z,18.86
2023-04-16T00:29:55.106Z,19.18
2023-04-16T00:32:25.091Z,18.79
2023-04-16T00:34:55.180Z,18.15
2023-04-16T00:37:27.780Z,19.00
2023-04-16T00:39:57.792Z,19.33
2023-04-16T00:42:27.787Z,19.57
2023-04-16T00:44:58.591Z,19.74
2023-04-16T00:47:29.071Z,19.53
2023-04-16T00:49:59.714Z,19.62
2023-04-16T00:52:33.229Z,19.50
2023-04-16T00:55:04.111Z,19.31
2023-04-16T00:57:34.106Z,19.91
2023-04-16T01:00:04.250Z,19.68
2023-04-16T01:02:34.459Z,19.77
2023-04-16T01:05:05.255Z,18.60
2023-04-16T01:07:37.948Z,19.18
2023-04-16T01:10:09.000Z,19.03
2023-04-16T01:12:38.977Z,19.58
2023-04-16T01:15:11.513Z,19.68
2023-04-16T01:17:42.000Z,19.33
2023-04-16T01:20:12.869Z,19.60
2023-04-16T01:22:45.741Z,19.05
2023-04-16T01:25:17.876Z,18.97
2023-04-16T01:27:47.880Z,19.69
2023-04-16T01:30:18.029Z,19.58
2023-04-16T01:33:10.048Z,19.67
2023-04-16T01:35:41.128Z,20.50
2023-04-16T01:38:13.977Z,19.35
2023-04-16T01:40:44.211Z,19.84
2023-04-16T01:43:15.317Z,19.84
2023-04-16T01:45:45.781Z,19.81
2023-04-16T01:48:15.866Z,19.75
2023-04-16T01:50:45.855Z,19.63
2023-04-16T01:53:18.379Z,20.30
2023-04-16T01:55:48.403Z,20.79
2023-04-16T01:58:18.585Z,20.87
2023-04-16T02:00:48.640Z,20.94
2023-04-16T02:03:20.124Z,20.54
2023-04-16T02:05:50.639Z,19.81
2023-04-16T02:08:23.491Z,20.77
2023-04-16T02:10:53.567Z,19.84
2023-04-16T02:13:23.506Z,20.07
2023-04-16T02:15:53.998Z,20.13
2023-04-16T02:18:38.837Z,19.94
2023-04-16T02:21:09.452Z,18.86
2023-04-16T02:23:42.655Z,19.12
2023-04-16T02:26:13.801Z,19.58
2023-04-16T02:28:44.455Z,20.04
2023-04-16T02:31:18.120Z,19.93
2023-04-16T02:33:48.431Z,20.04
2023-04-16T02:36:18.427Z,19.28
2023-04-16T02:38:51.009Z,19.84
2023-04-16T02:41:21.199Z,19.59
2023-04-16T02:43:51.407Z,19.87
2023-04-16T02:46:22.315Z,19.22
2023-04-16T02:48:53.549Z,20.48
2023-04-16T02:51:23.712Z,20.83
2023-04-16T02:53:56.277Z,20.76
2023-04-16T02:56:26.425Z,21.56
2023-04-16T02:58:56.363Z,21.09
2023-04-16T03:01:26.433Z,21.35
2023-04-16T03:03:56.504Z,21.55
2023-04-16T03:06:27.234Z,21.26
2023-04-16T03:08:59.948Z,21.91
2023-04-16T03:11:30.054Z,21.39
2023-04-16T03:13:59.993Z,22.22
2023-04-16T03:16:30.597Z,21.91
2023-04-16T03:19:00.928Z,20.78
2023-04-16T03:21:31.374Z,20.80
2023-04-16T03:24:04.538Z,21.23
2023-04-16T03:26:34.461Z,20.35
2023-04-16T03:29:04.909Z,20.45
2023-04-16T03:31:35.881Z,20.59
2023-04-16T03:34:05.848Z,20.74
2023-04-16T03:36:35.805Z,21.35
2023-04-16T03:39:08.603Z,21.33
2023-04-16T03:41:39.808Z,21.20
2023-04-16T03:44:09.743Z,20.39
2023-04-16T03:46:39.747Z,19.78
2023-04-16T03:49:10.219Z,20.80
2023-04-16T03:51:40.250Z,20.39
2023-04-16T03:54:12.893Z,20.04
2023-04-16T03:56:44.370Z,20.62
2023-04-16T03:59:14.302Z,20.37
2023-04-16T04:01:44.321Z,20.64
2023-04-16T04:04:15.341Z,20.43
2023-04-16T04:06:45.431Z,19.77
2023-04-16T04:09:18.423Z,20.25
2023-04-16T04:11:48.661Z,20.26
2023-04-16T04:14:18.667Z,21.22
2023-04-16T04:16:48.609Z,20.15
2023-04-16T04:19:18.627Z,19.44
2023-04-16T04:21:48.918Z,19.68
2023-04-16T04:24:23.056Z,19.75
2023-04-16T04:26:53.067Z,19.52
2023-04-16T04:29:23.130Z,19.68
2023-04-16T04:31:53.664Z,17.15
2023-04-16T04:34:25.990Z,16.49
2023-04-16T04:36:58.965Z,15.56
2023-04-16T04:39:32.440Z,15.52
2023-04-16T04:42:03.348Z,15.50
2023-04-16T04:44:33.427Z,14.85
2023-04-16T04:47:03.539Z,15.33
2023-04-16T04:49:33.802Z,15.40
2023-04-16T04:52:04.226Z,14.89
2023-04-16T04:54:41.580Z,15.18
2023-04-16T04:57:11.585Z,14.92
2023-04-16T04:59:42.726Z,15.36
2023-04-16T05:02:13.903Z,15.44
2023-04-16T05:04:43.926Z,14.92
2023-04-16T05:07:13.920Z,15.49
2023-04-16T05:09:46.448Z,15.73
2023-04-16T05:12:16.679Z,15.21
2023-04-16T05:14:46.635Z,15.44
2023-04-16T05:17:17.217Z,15.61
2023-04-16T05:19:47.201Z,16.02
2023-04-16T05:22:19.053Z,15.28
2023-04-16T05:24:51.622Z,15.59
2023-04-16T05:27:21.587Z,16.11
2023-04-16T05:29:51.543Z,15.48
2023-04-16T05:32:21.672Z,15.86
2023-04-16T05:34:51.642Z,15.81
2023-04-16T05:37:21.547Z,15.68
2023-04-16T05:39:54.142Z,15.84
2023-04-16T05:42:24.084Z,15.64
2023-04-16T05:44:54.957Z,15.85
2023-04-16T05:47:24.999Z,15.50
2023-04-16T05:49:54.943Z,15.54
2023-04-16T05:52:24.908Z,15.24
2023-04-16T05:54:58.196Z,15.07
2023-04-16T05:57:28.167Z,16.06
2023-04-16T05:59:58.113Z,15.58
2023-04-16T06:02:28.324Z,14.88
2023-04-16T06:04:58.328Z,14.76
2023-04-16T06:07:31.156Z,14.17
2023-04-16T06:10:03.745Z,13.81
2023-04-16T06:12:33.886Z,14.05
2023-04-16T06:15:04.078Z,14.06
2023-04-16T06:17:34.090Z,14.38
2023-04-16T06:20:04.112Z,14.48
2023-04-16T06:22:34.154Z,14.11
2023-04-16T06:25:07.021Z,13.73
2023-04-16T06:27:37.337Z,13.74
2023-04-16T06:30:09.060Z,14.05
2023-04-16T06:32:39.105Z,13.96
2023-04-16T06:35:10.201Z,13.87
2023-04-16T06:37:40.184Z,13.65
2023-04-16T06:40:13.989Z,12.84
2023-04-16T06:42:45.519Z,13.63
2023-04-16T06:45:17.257Z,14.12
2023-04-16T06:47:48.263Z,13.65
2023-04-16T06:50:18.397Z,12.58
2023-04-16T06:52:48.654Z,12.26
2023-04-16T06:55:21.407Z,11.95
2023-04-16T06:57:51.359Z,11.88
2023-04-16T07:00:22.072Z,11.66
2023-04-16T07:02:52.380Z,13.86
2023-04-16T07:05:22.500Z,14.62
2023-04-16T07:07:52.479Z,14.05
2023-04-16T07:10:25.133Z,13.27
2023-04-16T07:12:55.203Z,13.90
2023-04-16T07:15:25.233Z,14.30
2023-04-16T07:17:55.273Z,13.38
2023-04-16T07:20:25.488Z,13.15
2023-04-16T07:22:55.792Z,13.11
2023-04-16T07:25:28.503Z,12.96
2023-04-16T07:27:58.471Z,12.66
2023-04-16T07:30:32.926Z,11.74
2023-04-16T07:33:03.235Z,10.64
2023-04-16T07:35:33.669Z,10.46
2023-04-16T07:38:03.680Z,10.47
2023-04-16T07:40:36.562Z,10.80
2023-04-16T07:43:06.914Z,10.78
2023-04-16T07:45:37.003Z,10.54
2023-04-16T07:48:07.319Z,10.66
2023-04-16T07:50:37.388Z,10.81
2023-04-16T07:53:07.936Z,11.34
2023-04-16T07:55:40.595Z,12.23
2023-04-16T07:58:10.948Z,11.71
2023-04-16T08:00:42.225Z,11.38
2023-04-16T08:03:12.549Z,11.31
2023-04-16T08:05:42.872Z,11.62
2023-04-16T08:08:12.844Z,11.77
2023-04-16T08:10:45.360Z,11.47
2023-04-16T08:13:15.645Z,11.39
2023-04-16T08:15:45.671Z,11.67
2023-04-16T08:18:15.943Z,11.77
2023-04-16T08:20:45.991Z,12.01
2023-04-16T08:23:15.974Z,11.33
2023-04-16T08:25:48.450Z,11.23
2023-04-16T08:28:19.229Z,11.28
2023-04-16T08:30:49.306Z,11.22
2023-04-16T08:33:19.302Z,11.11
2023-04-16T08:35:49.308Z,11.10
2023-04-16T08:38:19.239Z,11.76
2023-04-16T08:40:51.896Z,11.18
2023-04-16T08:43:24.265Z,10.62
2023-04-16T08:45:59.358Z,11.15
2023-04-16T08:48:35.652Z,11.36
2023-04-16T08:51:06.436Z,10.65
2023-04-16T08:53:46.219Z,10.33
2023-04-16T08:56:23.885Z,11.12
2023-04-16T08:58:58.608Z,10.24
2023-04-16T09:01:29.597Z,10.80
2023-04-16T09:04:01.732Z,10.70
2023-04-16T09:06:32.080Z,10.81
2023-04-16T09:09:04.902Z,10.30
2023-04-16T09:11:37.717Z,10.49
2023-04-16T09:14:12.367Z,10.49
2023-04-16T09:16:43.734Z,11.17
2023-04-16T09:19:13.869Z,11.42
2023-04-16T09:21:45.748Z,11.17
2023-04-16T09:24:16.038Z,10.97
2023-04-16T09:26:49.549Z,11.62
2023-04-16T09:29:37.049Z,11.30
2023-04-16T09:32:08.958Z,11.83
2023-04-16T09:34:57.842Z,11.61
2023-04-16T09:37:29.876Z,12.12
2023-04-16T09:40:01.734Z,11.84
2023-04-16T09:42:37.104Z,12.28
2023-04-16T09:45:07.771Z,11.83
2023-04-16T09:47:45.112Z,12.15
2023-04-16T09:50:19.398Z,11.53
2023-04-16T09:52:53.359Z,13.12
2023-04-16T09:55:26.206Z,12.57
2023-04-16T09:58:04.421Z,12.31
2023-04-16T10:00:34.464Z,12.61
2023-04-16T10:03:08.499Z,12.30
2023-04-16T10:05:38.693Z,11.81
2023-04-16T10:08:15.768Z,11.55
2023-04-16T10:10:45.954Z,11.76
2023-04-16T10:13:19.426Z,11.17
2023-04-16T10:15:50.254Z,11.16
2023-04-16T10:18:21.669Z,11.18
2023-04-16T10:20:53.328Z,10.84
2023-04-16T10:23:24.087Z,10.72
2023-04-16T10:25:57.716Z,11.03
2023-04-16T10:28:31.241Z,11.21
2023-04-16T10:31:02.724Z,10.90
2023-04-16T10:33:36.739Z,10.89
2023-04-16T10:36:15.246Z,11.57
2023-04-16T10:38:49.634Z,11.54
2023-04-16T10:41:19.637Z,11.61
2023-04-16T10:43:53.566Z,11.25
2023-04-16T10:46:40.824Z,11.03
2023-04-16T10:49:19.306Z,10.79
2023-04-16T10:51:57.706Z,10.83
2023-04-16T10:54:29.711Z,10.76
2023-04-16T10:57:03.747Z,11.07
2023-04-16T10:59:40.065Z,10.78
2023-04-16T11:02:12.546Z,10.84
2023-04-16T11:04:45.609Z,11.25
2023-04-16T11:07:21.795Z,11.12
2023-04-16T11:10:00.513Z,11.30
2023-04-16T11:12:38.280Z,10.99
2023-04-16T11:15:13.560Z,11.63
2023-04-16T11:17:48.201Z,11.00
2023-04-16T11:20:22.182Z,12.12
2023-04-16T11:22:52.881Z,11.54
2023-04-16T11:25:24.229Z,11.52
2023-04-16T11:27:55.139Z,11.73
2023-04-16T11:30:35.420Z,11.20
2023-04-16T11:33:05.962Z,11.91
2023-04-16T11:35:36.319Z,10.94
2023-04-16T11:38:07.309Z,11.13
2023-04-16T11:40:37.980Z,11.06
2023-04-16T11:43:16.712Z,11.24
2023-04-16T11:46:10.319Z,10.97
2023-04-16T11:48:58.004Z,10.33
2023-04-16T11:51:28.022Z,9.17
2023-04-16T11:53:58.899Z,9.07
2023-04-16T11:56:30.331Z,9.25
2023-04-16T11:59:13.778Z,9.21
2023-04-16T12:01:50.273Z,8.65
2023-04-16T12:04:24.606Z,8.85
2023-04-16T12:07:11.248Z,9.21
2023-04-16T12:09:43.573Z,8.93
2023-04-16T12:12:31.590Z,8.92
2023-04-16T12:15:04.111Z,9.08
2023-04-16T12:17:39.189Z,10.18
2023-04-16T12:20:13.813Z,12.41
2023-04-16T12:22:48.049Z,12.33
2023-04-16T12:25:20.814Z,12.74
2023-04-16T12:27:53.979Z,11.88
2023-04-16T12:30:26.386Z,13.71
2023-04-16T12:33:20.974Z,13.31
2023-04-16T12:35:51.142Z,12.96
2023-04-16T12:38:23.608Z,10.88
2023-04-16T12:40:57.156Z,11.24
2023-04-16T12:43:28.640Z,11.98
2023-04-16T12:45:58.651Z,11.84
2023-04-16T12:48:32.524Z,11.98
2023-04-16T12:51:02.823Z,12.22
2023-04-16T12:53:32.833Z,16.98
2023-04-16T12:56:02.871Z,15.94
2023-04-16T12:58:32.816Z,11.55
2023-04-16T13:01:02.839Z,12.63
2023-04-16T13:03:36.460Z,17.13
2023-04-16T13:06:07.313Z,11.37
2023-04-16T13:08:37.566Z,11.82
2023-04-16T13:11:07.654Z,11.14
2023-04-16T13:13:38.088Z,13.26
2023-04-16T13:16:09.595Z,14.10
2023-04-16T13:18:45.508Z,11.83
2023-04-16T13:21:15.574Z,14.08
2023-04-16T13:23:45.678Z,12.28
2023-04-16T13:26:16.568Z,10.65
2023-04-16T13:28:46.596Z,10.60
2023-04-16T13:31:20.165Z,10.94
2023-04-16T13:33:53.671Z,11.45
2023-04-16T13:36:25.074Z,11.01
2023-04-16T13:38:57.026Z,11.10
2023-04-16T13:41:27.636Z,11.57
2023-04-16T13:43:57.576Z,13.05
2023-04-16T13:46:36.569Z,14.42
2023-04-16T13:49:09.958Z,13.66
2023-04-16T13:51:40.234Z,10.68
2023-04-16T13:54:10.155Z,10.49
2023-04-16T13:56:40.321Z,9.83
2023-04-16T13:59:11.131Z,10.13
2023-04-16T14:01:41.437Z,12.24
2023-04-16T14:04:14.046Z,15.49
2023-04-16T14:06:44.048Z,13.28
2023-04-16T14:09:14.030Z,13.55
2023-04-16T14:11:44.379Z,12.88
2023-04-16T14:14:14.450Z,12.60
2023-04-16T14:16:44.546Z,20.24
2023-04-16T14:19:17.204Z,13.62
2023-04-16T14:21:47.220Z,11.39
2023-04-16T14:24:17.176Z,10.49
2023-04-16T14:26:47.406Z,10.74
2023-04-16T14:29:17.431Z,11.62
2023-04-16T14:31:47.364Z,11.39
2023-04-16T14:34:20.051Z,11.16
2023-04-16T14:36:52.029Z,11.25
2023-04-16T14:39:22.187Z,10.82
2023-04-16T14:41:52.141Z,11.28
2023-04-16T14:44:22.884Z,15.99
2023-04-16T14:46:52.864Z,21.38
2023-04-16T14:49:25.380Z,18.44
2023-04-16T14:51:56.779Z,14.23
2023-04-16T14:54:26.852Z,14.76
2023-04-16T14:56:57.005Z,16.64
2023-04-16T14:59:26.958Z,17.69
2023-04-16T15:01:58.577Z,18.56
2023-04-16T15:04:32.528Z,15.83
2023-04-16T15:07:02.703Z,15.23
2023-04-16T15:09:32.658Z,13.76
2023-04-16T15:12:03.027Z,13.66
2023-04-16T15:14:33.004Z,13.57
2023-04-16T15:17:03.271Z,14.00
2023-04-16T15:19:35.982Z,14.35
2023-04-16T15:22:06.045Z,14.18
2023-04-16T15:24:36.137Z,14.15
2023-04-16T15:27:11.870Z,14.28
2023-04-16T15:29:42.041Z,15.08
2023-04-16T15:32:12.024Z,15.08
2023-04-16T15:34:44.655Z,17.36
2023-04-16T15:37:14.756Z,17.04
2023-04-16T15:39:44.789Z,17.08
2023-04-16T15:42:14.956Z,16.50
2023-04-16T15:44:45.007Z,16.47
2023-04-16T15:47:15.088Z,16.15
2023-04-16T15:49:47.710Z,16.06
2023-04-16T15:52:20.042Z,15.74
2023-04-16T15:54:50.096Z,15.26
2023-04-16T15:57:20.057Z,15.43
2023-04-16T16:00:05.355Z,16.13
2023-04-16T16:02:38.486Z,16.94
2023-04-16T16:05:13.560Z,16.81
2023-04-16T16:07:44.037Z,17.65
2023-04-16T16:10:14.886Z,18.01
2023-04-16T16:12:44.877Z,18.32
2023-04-16T16:15:15.392Z,18.99
2023-04-16T16:17:45.430Z,18.81
2023-04-16T16:20:18.118Z,19.52
2023-04-16T16:22:48.508Z,20.30
2023-04-16T16:25:18.457Z,20.28
2023-04-16T16:27:49.448Z,20.69
2023-04-16T16:30:19.525Z,21.39
2023-04-16T16:32:49.594Z,21.42
2023-04-16T16:35:22.636Z,22.43
2023-04-16T16:37:55.575Z,23.29
2023-04-16T16:40:25.888Z,23.92
2023-04-16T16:42:55.989Z,24.45
2023-04-16T16:45:26.315Z,24.07
2023-04-16T16:47:56.840Z,24.08
2023-04-16T16:50:29.797Z,24.49
2023-04-16T16:53:01.197Z,24.67
2023-04-16T16:55:31.343Z,25.39
2023-04-16T16:58:01.378Z,25.34
2023-04-16T17:00:31.450Z,25.23
2023-04-16T17:03:01.689Z,26.38
2023-04-16T17:05:34.528Z,26.09
2023-04-16T17:08:04.486Z,25.91
2023-04-16T17:10:34.571Z,26.68
2023-04-16T17:13:04.525Z,26.03
2023-04-16T17:15:34.575Z,26.30
2023-04-16T17:18:04.528Z,25.96
2023-04-16T17:20:37.219Z,26.15
2023-04-16T17:23:07.252Z,27.01
2023-04-16T17:25:37.593Z,27.90
2023-04-16T17:28:08.082Z,27.23
2023-04-16T17:30:38.033Z,28.19
2023-04-16T17:33:08.055Z,26.93
2023-04-16T17:35:42.381Z,27.18
2023-04-16T17:38:12.413Z,27.13
2023-04-16T17:40:42.415Z,27.05
2023-04-16T17:43:12.438Z,27.18
2023-04-16T17:45:42.452Z,25.48
2023-04-16T17:48:12.516Z,24.38
2023-04-16T17:50:45.305Z,22.43
2023-04-16T17:53:15.818Z,22.56
2023-04-16T17:55:55.180Z,21.87
2023-04-16T17:58:26.833Z,21.43
2023-04-16T18:00:56.787Z,22.41
2023-04-16T18:03:27.375Z,23.10
2023-04-16T18:06:00.167Z,23.02
2023-04-16T18:08:30.351Z,23.12
2023-04-16T18:11:00.451Z,23.08
2023-04-16T18:13:30.550Z,23.53
2023-04-16T18:16:02.553Z,23.60
2023-04-16T18:18:33.073Z,23.26
2023-04-16T18:21:05.652Z,21.80
2023-04-16T18:23:35.820Z,22.42
2023-04-16T18:26:08.339Z,22.99
2023-04-16T18:28:39.418Z,24.47
2023-04-16T18:31:09.552Z,24.00
2023-04-16T18:33:55.720Z,23.72
2023-04-16T18:36:30.321Z,24.27
2023-04-16T18:39:02.527Z,26.13
2023-04-16T18:41:33.585Z,24.15
2023-04-16T18:44:03.823Z,25.20
2023-04-16T18:46:33.961Z,28.44
2023-04-16T18:49:04.043Z,26.20
2023-04-16T18:51:36.619Z,28.31
2023-04-16T18:54:06.812Z,28.74
2023-04-16T18:56:36.928Z,25.68
2023-04-16T18:59:06.959Z,25.38
2023-04-16T19:01:36.972Z,24.39
2023-04-16T19:04:07.366Z,25.20
2023-04-16T19:06:40.318Z,25.67
2023-04-16T19:09:11.572Z,27.65
2023-04-16T19:11:41.857Z,27.86
2023-04-16T19:14:13.547Z,26.90
2023-04-16T19:16:43.802Z,25.85
2023-04-16T19:19:14.018Z,25.36
2023-04-16T19:21:46.619Z,24.10
2023-04-16T19:24:17.061Z,25.03
2023-04-16T19:26:47.052Z,25.21
2023-04-16T19:29:18.089Z,25.23
2023-04-16T19:31:49.156Z,25.05
2023-04-16T19:34:19.183Z,25.44
2023-04-16T19:36:51.780Z,24.96
2023-04-16T19:39:21.990Z,25.77
2023-04-16T19:41:52.139Z,29.21
2023-04-16T19:44:23.309Z,27.86
2023-04-16T19:46:53.356Z,25.58
2023-04-16T19:49:25.381Z,25.03
2023-04-16T19:51:57.927Z,24.45
2023-04-16T19:54:28.898Z,25.08
2023-04-16T19:56:58.957Z,24.66
2023-04-16T19:59:29.127Z,25.54
2023-04-16T20:01:59.465Z,25.30
2023-04-16T20:04:32.768Z,25.26
2023-04-16T20:07:05.774Z,24.95
2023-04-16T20:09:35.952Z,24.81
2023-04-16T20:12:06.170Z,23.66
2023-04-16T20:14:36.260Z,24.54
2023-04-16T20:17:10.366Z,24.99
2023-04-16T20:19:40.914Z,24.76
2023-04-16T20:22:14.936Z,24.59
2023-04-16T20:24:47.819Z,25.28
2023-04-16T20:27:19.621Z,24.14
2023-04-16T20:29:50.032Z,24.42
2023-04-16T20:32:20.205Z,25.90
2023-04-16T20:34:50.439Z,23.38
2023-04-16T20:37:23.373Z,24.36
2023-04-16T20:39:56.561Z,23.29
2023-04-16T20:42:27.876Z,24.66
2023-04-16T20:45:01.003Z,26.83
2023-04-16T20:47:31.441Z,25.22
2023-04-16T20:50:01.930Z,25.34
2023-04-16T20:52:34.955Z,24.64
2023-04-16T20:55:05.185Z,25.94
2023-04-16T20:57:35.630Z,26.09
2023-04-16T21:00:10.789Z,26.68
2023-04-16T21:02:41.473Z,27.96
2023-04-16T21:05:14.269Z,26.99
2023-04-16T21:07:49.900Z,27.68
2023-04-16T21:10:23.825Z,27.36
2023-04-16T21:12:54.321Z,26.99
2023-04-16T21:15:24.842Z,27.87
2023-04-16T21:17:55.233Z,26.95
2023-04-16T21:20:30.528Z,28.34
2023-04-16T21:23:03.840Z,27.04
2023-04-16T21:25:33.997Z,26.75
2023-04-16T21:28:04.349Z,27.46
2023-04-16T21:30:37.243Z,27.27
2023-04-16T21:33:12.077Z,28.74
2023-04-16T21:35:57.859Z,33.50
2023-04-16T21:38:37.024Z,34.00
2023-04-16T21:41:09.753Z,32.42
2023-04-16T21:43:43.157Z,32.01
2023-04-16T21:46:26.657Z,30.62
2023-04-16T21:48:57.036Z,29.83
2023-04-16T21:51:29.591Z,30.14
2023-04-16T21:54:02.191Z,30.24
2023-04-16T21:56:32.163Z,29.20
2023-04-16T21:59:02.138Z,27.81
2023-04-16T22:01:32.208Z,27.11
2023-04-16T22:04:02.311Z,28.07
2023-04-16T22:06:32.357Z,27.68
2023-04-16T22:09:06.829Z,28.48
2023-04-16T22:11:36.868Z,27.66
2023-04-16T22:14:08.457Z,28.55
2023-04-16T22:16:38.820Z,28.30
2023-04-16T22:19:08.872Z,28.13
2023-04-16T22:21:39.003Z,28.30
2023-04-16T22:24:14.451Z,28.76
2023-04-16T22:26:44.424Z,27.99
2023-04-16T22:29:14.386Z,28.73
2023-04-16T22:31:44.431Z,28.99
2023-04-16T22:34:14.387Z,28.77
2023-04-16T22:36:44.325Z,27.91
2023-04-16T22:39:16.966Z,28.83
2023-04-16T22:41:46.952Z,28.56
2023-04-16T22:44:17.036Z,28.75
2023-04-16T22:46:47.625Z,29.23
2023-04-16T22:49:17.584Z,28.70
2023-04-16T22:51:47.651Z,28.66
2023-04-16T22:54:20.268Z,29.06
2023-04-16T22:56:50.325Z,28.71
2023-04-16T22:59:20.214Z,29.25
2023-04-16T23:01:50.184Z,29.46
2023-04-16T23:04:20.331Z,29.28
2023-04-16T23:06:50.571Z,29.77
2023-04-16T23:09:23.360Z,29.68
2023-04-16T23:11:53.404Z,29.41
2023-04-16T23:14:23.861Z,29.66
2023-04-16T23:16:53.769Z,29.76
2023-04-16T23:19:23.744Z,30.06
2023-04-16T23:21:53.764Z,29.88
2023-04-16T23:24:26.611Z,29.34
2023-04-16T23:26:56.556Z,30.17
2023-04-16T23:29:26.657Z,29.13
2023-04-16T23:31:58.464Z,29.46
2023-04-16T23:34:28.558Z,29.90
2023-04-16T23:36:58.537Z,28.75
2023-04-16T23:39:31.244Z,29.88
2023-04-16T23:42:01.408Z,29.31
2023-04-16T23:44:31.463Z,29.45
2023-04-16T23:47:01.603Z,29.48
2023-04-16T23:49:31.603Z,29.23
2023-04-16T23:52:01.550Z,29.21
2023-04-16T23:54:34.165Z,29.19
2023-04-16T23:57:04.334Z,29.00
2023-04-16T23:59:34.315Z,29.30
